createdAt,value
2018-05-26T00:01:05.085Z,70.70
2018-05-26T00:03:32.526Z,70.30
2018-05-26T00:05:59.974Z,70.40
2018-05-26T00:08:27.470Z,70.60
2018-05-26T00:10:56.619Z,70.80
2018-05-26T00:13:24.071Z,70.80
2018-05-26T00:15:51.535Z,71.00
2018-05-26T00:18:19.741Z,71.40
2018-05-26T00:20:47.182Z,71.30
2018-05-26T00:23:14.623Z,71.60
2018-05-26T00:25:42.066Z,71.60
2018-05-26T00:28:09.526Z,71.60
2018-05-26T00:30:36.975Z,71.60
2018-05-26T00:33:04.431Z,71.70
2018-05-26T00:35:31.876Z,71.80
2018-05-26T00:37:59.317Z,72.70
2018-05-26T00:40:26.753Z,72.20
2018-05-26T00:42:54.205Z,74.10
2018-05-26T00:45:22.423Z,75.10
2018-05-26T00:47:49.878Z,75.10
2018-05-26T00:50:17.333Z,75.10
2018-05-26T00:52:44.794Z,75.10
2018-05-26T00:55:12.248Z,75.20
2018-05-26T00:57:39.678Z,75.00
2018-05-26T01:00:07.896Z,75.50
2018-05-26T01:02:35.341Z,75.50
2018-05-26T01:05:02.779Z,77.30
2018-05-26T01:07:30.231Z,78.80
2018-05-26T01:09:57.705Z,80.00
2018-05-26T01:12:25.158Z,78.70
2018-05-26T01:14:52.598Z,79.00
2018-05-26T01:17:20.837Z,79.80
2018-05-26T01:19:48.285Z,79.80
2018-05-26T01:22:15.742Z,80.20
2018-05-26T01:24:43.210Z,80.80
2018-05-26T01:27:11.426Z,81.60
2018-05-26T01:29:39.780Z,81.60
2018-05-26T01:32:07.243Z,82.10
2018-05-26T01:34:34.683Z,81.60
2018-05-26T01:37:02.141Z,81.20
2018-05-26T01:39:30.367Z,80.10
2018-05-26T01:41:57.825Z,80.10
2018-05-26T01:44:25.282Z,79.40
2018-05-26T01:46:52.735Z,79.00
2018-05-26T01:49:20.951Z,78.80
2018-05-26T01:51:48.402Z,78.80
2018-05-26T01:54:15.858Z,78.70
2018-05-26T01:56:43.304Z,80.70
2018-05-26T01:59:10.746Z,82.00
2018-05-26T02:01:38.194Z,81.70
2018-05-26T02:04:05.652Z,80.30
2018-05-26T02:06:33.864Z,80.50
2018-05-26T02:09:01.319Z,80.50
2018-05-26T02:11:28.775Z,81.10
2018-05-26T02:13:56.236Z,80.70
2018-05-26T02:16:24.454Z,80.40
2018-05-26T02:18:51.904Z,79.90
2018-05-26T02:21:19.348Z,80.00
2018-05-26T02:23:46.811Z,80.30
2018-05-26T02:26:14.263Z,80.60
2018-05-26T02:28:41.722Z,79.90
2018-05-26T02:31:09.934Z,79.20
2018-05-26T02:33:37.678Z,79.20
2018-05-26T02:36:05.148Z,79.30
2018-05-26T02:38:32.604Z,80.00
2018-05-26T02:41:00.061Z,81.20
2018-05-26T02:43:28.286Z,80.90
2018-05-26T02:45:55.736Z,80.70
2018-05-26T02:48:23.197Z,80.00
2018-05-26T02:50:50.630Z,79.70
2018-05-26T02:53:18.078Z,79.60
2018-05-26T02:55:45.536Z,79.50
2018-05-26T02:58:13.771Z,81.00
2018-05-26T03:00:41.208Z,81.00
2018-05-26T03:03:08.646Z,80.40
2018-05-26T03:05:41.745Z,80.20
2018-05-26T03:08:14.929Z,80.00
2018-05-26T03:10:48.059Z,79.40
2018-05-26T03:13:21.325Z,79.20
2018-05-26T03:15:57.370Z,79.80
2018-05-26T03:18:24.830Z,80.20
2018-05-26T03:20:52.277Z,80.00
2018-05-26T03:23:19.726Z,80.00
2018-05-26T03:25:47.191Z,80.00
2018-05-26T03:28:14.630Z,80.00
2018-05-26T03:30:42.094Z,79.50
2018-05-26T03:33:10.400Z,79.40
2018-05-26T03:35:37.842Z,79.40
2018-05-26T03:38:05.298Z,79.30
2018-05-26T03:40:32.759Z,79.30
2018-05-26T03:43:00.201Z,79.70
2018-05-26T03:45:27.843Z,79.60
2018-05-26T03:47:55.285Z,80.50
2018-05-26T03:50:22.741Z,79.50
2018-05-26T03:52:50.183Z,79.70
2018-05-26T03:55:38.222Z,80.00
2018-05-26T03:58:18.500Z,80.00
2018-05-26T04:00:45.956Z,80.10
2018-05-26T04:03:13.398Z,80.10
2018-05-26T04:05:40.837Z,79.80
2018-05-26T04:08:08.279Z,79.40
2018-05-26T04:10:35.737Z,79.40
2018-05-26T04:13:04.000Z,79.30
2018-05-26T04:15:31.450Z,79.70
2018-05-26T04:17:58.901Z,79.70
2018-05-26T04:20:26.345Z,81.10
2018-05-26T04:22:53.817Z,80.50
2018-05-26T04:25:21.277Z,80.80
2018-05-26T04:27:48.746Z,82.00
2018-05-26T04:30:16.207Z,82.00
2018-05-26T04:32:43.669Z,82.00
2018-05-26T04:35:11.134Z,82.00
2018-05-26T04:37:39.365Z,81.90
2018-05-26T04:40:06.824Z,81.90
2018-05-26T04:42:35.046Z,81.50
2018-05-26T04:45:02.483Z,80.80
2018-05-26T04:47:29.941Z,80.10
2018-05-26T04:49:57.397Z,79.90
2018-05-26T04:52:24.858Z,79.30
2018-05-26T04:54:53.094Z,79.20
2018-05-26T04:57:20.543Z,79.20
2018-05-26T04:59:47.973Z,77.70
2018-05-26T05:02:15.417Z,78.30
2018-05-26T05:04:42.866Z,77.20
2018-05-26T05:07:10.330Z,77.00
2018-05-26T05:09:37.770Z,76.00
2018-05-26T05:12:06.010Z,75.30
2018-05-26T05:14:33.450Z,75.30
2018-05-26T05:17:01.012Z,73.70
2018-05-26T05:19:28.413Z,72.50
2018-05-26T05:21:56.667Z,71.90
2018-05-26T05:24:24.186Z,70.30
2018-05-26T05:26:51.714Z,69.70
2018-05-26T05:29:19.078Z,67.60
2018-05-26T05:31:46.523Z,66.80
2018-05-26T05:34:13.978Z,65.60
2018-05-26T05:36:41.422Z,64.30
2018-05-26T05:39:08.884Z,61.70
2018-05-26T05:41:36.330Z,59.60
2018-05-26T05:44:03.785Z,58.80
2018-05-26T05:46:31.242Z,58.30
2018-05-26T05:48:58.682Z,56.70
2018-05-26T05:51:26.137Z,55.70
2018-05-26T05:53:54.354Z,55.80
2018-05-26T05:56:21.888Z,55.10
2018-05-26T05:58:49.282Z,54.10
2018-05-26T06:01:16.734Z,54.40
2018-05-26T06:03:44.190Z,53.80
2018-05-26T06:06:12.387Z,52.10
2018-05-26T06:08:39.875Z,51.90
2018-05-26T06:11:07.313Z,51.60
2018-05-26T06:13:34.769Z,50.60
2018-05-26T06:16:02.985Z,49.20
2018-05-26T06:18:30.444Z,49.20
2018-05-26T06:20:57.912Z,48.50
2018-05-26T06:23:26.117Z,47.10
2018-05-26T06:25:53.566Z,47.10
2018-05-26T06:28:21.112Z,47.70
2018-05-26T06:30:48.552Z,47.80
2018-05-26T06:33:16.021Z,46.80
2018-05-26T06:35:43.497Z,46.70
2018-05-26T06:38:10.948Z,47.50
2018-05-26T06:40:39.133Z,46.60
2018-05-26T06:43:06.587Z,46.60
2018-05-26T06:45:34.085Z,47.80
2018-05-26T06:48:01.541Z,47.00
2018-05-26T06:50:28.983Z,48.10
2018-05-26T06:52:56.425Z,47.60
2018-05-26T06:55:23.865Z,47.70
2018-05-26T06:57:51.317Z,49.80
2018-05-26T07:00:18.799Z,49.80
2018-05-26T07:02:46.605Z,50.90
2018-05-26T07:05:14.805Z,52.40
2018-05-26T07:07:42.270Z,52.40
2018-05-26T07:10:09.745Z,52.80
2018-05-26T07:12:37.186Z,52.20
2018-05-26T07:15:05.415Z,50.40
2018-05-26T07:17:32.866Z,51.00
2018-05-26T07:20:00.305Z,50.20
2018-05-26T07:22:27.758Z,51.00
2018-05-26T07:24:55.197Z,49.90
2018-05-26T07:27:22.658Z,51.10
2018-05-26T07:29:50.873Z,50.30
2018-05-26T07:32:18.306Z,50.20
2018-05-26T07:34:45.750Z,50.40
2018-05-26T07:37:13.250Z,50.80
2018-05-26T07:39:41.465Z,54.30
2018-05-26T07:42:08.922Z,54.30
2018-05-26T07:44:36.373Z,53.10
2018-05-26T07:47:03.839Z,51.40
2018-05-26T07:49:32.046Z,51.90
2018-05-26T07:51:59.523Z,51.90
2018-05-26T07:54:26.957Z,53.50
2018-05-26T07:56:54.411Z,51.30
2018-05-26T07:59:21.859Z,49.60
2018-05-26T08:01:50.093Z,49.90
2018-05-26T08:04:17.539Z,49.20
2018-05-26T08:06:44.982Z,48.50
2018-05-26T08:09:12.923Z,47.40
2018-05-26T08:11:40.371Z,48.70
2018-05-26T08:14:07.830Z,49.00
2018-05-26T08:16:35.272Z,48.70
2018-05-26T08:19:02.725Z,49.50
2018-05-26T08:21:30.164Z,49.60
2018-05-26T08:23:57.664Z,47.70
2018-05-26T08:26:25.103Z,47.10
2018-05-26T08:28:52.559Z,46.10
2018-05-26T08:31:20.015Z,46.10
2018-05-26T08:33:47.549Z,47.10
2018-05-26T08:36:14.918Z,46.40
2018-05-26T08:38:42.364Z,46.00
2018-05-26T08:41:09.820Z,45.00
2018-05-26T08:43:37.262Z,44.30
2018-05-26T08:46:05.490Z,44.20
2018-05-26T08:48:32.947Z,44.20
2018-05-26T08:51:00.398Z,44.90
2018-05-26T08:53:27.855Z,43.20
2018-05-26T08:55:56.071Z,43.10
2018-05-26T08:58:23.518Z,43.10
2018-05-26T09:00:50.978Z,42.50
2018-05-26T09:03:18.450Z,41.40
2018-05-26T09:05:46.683Z,41.60
2018-05-26T09:08:14.141Z,41.50
2018-05-26T09:10:41.595Z,41.90
2018-05-26T09:13:09.819Z,41.20
2018-05-26T09:15:37.262Z,41.80
2018-05-26T09:18:04.724Z,40.00
2018-05-26T09:20:32.190Z,38.00
2018-05-26T09:23:00.398Z,35.50
2018-05-26T09:25:27.900Z,35.60
2018-05-26T09:27:55.304Z,35.40
2018-05-26T09:30:22.747Z,36.20
2018-05-26T09:32:50.203Z,38.00
2018-05-26T09:35:17.634Z,40.10
2018-05-26T09:37:45.082Z,40.10
2018-05-26T09:40:12.591Z,37.80
2018-05-26T09:42:40.019Z,36.30
2018-05-26T09:45:07.507Z,36.80
2018-05-26T09:47:34.947Z,34.40
2018-05-26T09:50:02.386Z,35.30
2018-05-26T09:52:29.838Z,32.20
2018-05-26T09:54:57.313Z,32.50
2018-05-26T09:57:25.515Z,35.50
2018-05-26T09:59:52.946Z,35.50
2018-05-26T10:02:20.381Z,34.40
2018-05-26T10:04:47.829Z,33.40
2018-05-26T10:07:15.283Z,34.20
2018-05-26T10:09:42.736Z,33.30
2018-05-26T10:12:10.158Z,32.40
2018-05-26T10:14:37.590Z,33.70
2018-05-26T10:17:05.026Z,33.40
2018-05-26T10:19:32.466Z,33.40
2018-05-26T10:21:59.923Z,34.60
2018-05-26T10:24:27.382Z,34.70
2018-05-26T10:26:54.812Z,32.80
2018-05-26T10:29:22.256Z,33.50
2018-05-26T10:31:50.123Z,33.40
2018-05-26T10:34:17.985Z,33.70
2018-05-26T10:36:45.413Z,33.80
2018-05-26T10:39:12.872Z,34.00
2018-05-26T10:41:40.318Z,33.30
2018-05-26T10:44:07.790Z,32.60
2018-05-26T10:46:35.982Z,32.20
2018-05-26T10:49:03.445Z,32.40
2018-05-26T10:51:30.898Z,32.10
2018-05-26T10:53:58.354Z,33.80
2018-05-26T10:56:25.801Z,35.60
2018-05-26T10:58:53.321Z,36.20
2018-05-26T11:01:20.731Z,33.80
2018-05-26T11:03:48.172Z,35.60
2018-05-26T11:06:15.623Z,35.20
2018-05-26T11:08:43.066Z,34.60
2018-05-26T11:11:10.498Z,36.40
2018-05-26T11:13:37.929Z,35.60
2018-05-26T11:16:06.176Z,35.30
2018-05-26T11:18:34.051Z,35.10
2018-05-26T11:21:02.247Z,33.50
2018-05-26T11:23:29.682Z,33.50
2018-05-26T11:25:57.127Z,34.80
2018-05-26T11:28:24.579Z,33.90
2018-05-26T11:30:52.034Z,34.70
2018-05-26T11:33:19.476Z,35.00
2018-05-26T11:35:46.918Z,34.40
2018-05-26T11:38:14.361Z,35.20
2018-05-26T11:40:41.806Z,35.20
2018-05-26T11:43:09.244Z,35.90
2018-05-26T11:45:36.688Z,37.40
2018-05-26T11:48:04.158Z,38.60
2018-05-26T11:50:31.602Z,38.30
2018-05-26T11:52:59.086Z,38.40
2018-05-26T11:55:26.531Z,37.80
2018-05-26T11:57:53.958Z,38.40
2018-05-26T12:00:21.410Z,36.00
2018-05-26T12:02:48.874Z,36.20
2018-05-26T12:05:16.330Z,35.50
2018-05-26T12:07:43.770Z,36.30
2018-05-26T12:10:11.206Z,32.90
2018-05-26T12:12:38.643Z,34.90
2018-05-26T12:15:06.078Z,36.20
2018-05-26T12:17:33.511Z,37.00
2018-05-26T12:20:00.962Z,36.90
2018-05-26T12:22:28.409Z,37.40
2018-05-26T12:24:55.866Z,36.80
2018-05-26T12:27:23.347Z,36.50
2018-05-26T12:29:50.742Z,37.00
2018-05-26T12:32:18.193Z,36.00
2018-05-26T12:34:45.624Z,35.90
2018-05-26T12:37:13.062Z,36.50
2018-05-26T12:39:40.530Z,36.60
2018-05-26T12:42:08.025Z,36.80
2018-05-26T12:44:36.255Z,36.60
2018-05-26T12:47:03.702Z,36.60
2018-05-26T12:49:31.162Z,35.20
2018-05-26T12:51:59.372Z,35.70
2018-05-26T12:54:26.814Z,35.50
2018-05-26T12:56:54.250Z,35.20
2018-05-26T12:59:22.474Z,35.70
2018-05-26T13:01:49.934Z,35.10
2018-05-26T13:04:17.389Z,35.40
2018-05-26T13:06:44.825Z,35.60
2018-05-26T13:09:12.267Z,35.30
2018-05-26T13:11:39.725Z,35.30
2018-05-26T13:14:07.170Z,35.30
2018-05-26T13:16:34.606Z,33.70
2018-05-26T13:19:02.056Z,32.80
2018-05-26T13:21:29.588Z,33.10
2018-05-26T13:23:57.076Z,31.00
2018-05-26T13:26:24.540Z,30.80
2018-05-26T13:28:52.748Z,32.70
2018-05-26T13:31:20.236Z,32.70
2018-05-26T13:33:47.663Z,32.10
2018-05-26T13:36:15.165Z,34.50
2018-05-26T13:38:42.617Z,33.80
2018-05-26T13:41:10.080Z,34.10
2018-05-26T13:43:37.559Z,34.30
2018-05-26T13:46:05.766Z,33.60
2018-05-26T13:48:33.977Z,33.60
2018-05-26T13:51:01.504Z,33.60
2018-05-26T13:53:29.052Z,33.60
2018-05-26T13:55:56.489Z,33.90
2018-05-26T13:58:23.968Z,34.20
2018-05-26T14:00:51.425Z,35.10
2018-05-26T14:03:18.891Z,35.70
2018-05-26T14:05:46.322Z,35.80
2018-05-26T14:08:13.795Z,36.10
2018-05-26T14:10:41.267Z,35.40
2018-05-26T14:13:08.709Z,36.30
2018-05-26T14:15:36.934Z,35.80
2018-05-26T14:18:04.402Z,35.80
2018-05-26T14:20:32.631Z,36.20
2018-05-26T14:23:00.080Z,36.20
2018-05-26T14:28:02.116Z,36.00
2018-05-26T14:30:29.560Z,36.00
2018-05-26T14:32:57.020Z,35.70
2018-05-26T14:35:26.761Z,35.20
2018-05-26T14:37:54.962Z,36.40
2018-05-26T14:40:22.499Z,36.40
2018-05-26T14:42:49.917Z,35.40
2018-05-26T14:45:17.373Z,36.40
2018-05-26T14:47:44.802Z,36.60
2018-05-26T14:50:12.250Z,37.10
2018-05-26T14:52:39.678Z,36.70
2018-05-26T14:55:07.887Z,36.30
2018-05-26T14:57:35.316Z,36.30
2018-05-26T15:00:02.755Z,35.60
2018-05-26T15:02:30.187Z,35.60
2018-05-26T15:04:57.631Z,35.80
2018-05-26T15:07:25.076Z,35.30
2018-05-26T15:09:52.505Z,35.40
2018-05-26T15:12:19.946Z,34.80
2018-05-26T15:14:47.394Z,35.40
2018-05-26T15:17:14.834Z,34.80
2018-05-26T15:19:42.318Z,35.10
2018-05-26T15:22:09.780Z,35.20
2018-05-26T15:24:37.250Z,34.90
2018-05-26T15:27:05.446Z,33.60
2018-05-26T15:29:32.880Z,33.60
2018-05-26T15:32:00.328Z,33.80
2018-05-26T15:34:27.762Z,33.70
2018-05-26T15:36:55.212Z,33.60
2018-05-26T15:39:22.658Z,33.00
2018-05-26T15:41:50.112Z,34.00
2018-05-26T15:44:17.552Z,33.40
2018-05-26T15:46:44.989Z,34.40
2018-05-26T15:49:12.438Z,34.20
2018-05-26T15:51:39.875Z,34.50
2018-05-26T15:54:07.350Z,34.80
2018-05-26T15:56:34.761Z,35.10
2018-05-26T15:59:02.219Z,35.40
2018-05-26T16:01:29.667Z,34.90
2018-05-26T16:03:57.139Z,35.10
2018-05-26T16:06:25.347Z,36.20
2018-05-26T16:08:52.789Z,36.10
2018-05-26T16:11:20.233Z,34.90
2018-05-26T16:13:47.668Z,35.40
2018-05-26T16:16:15.129Z,35.50
2018-05-26T16:18:42.573Z,35.30
2018-05-26T16:21:10.044Z,36.00
2018-05-26T16:23:37.497Z,36.00
2018-05-26T16:26:05.772Z,36.00
2018-05-26T16:28:33.987Z,35.90
2018-05-26T16:31:01.427Z,35.90
2018-05-26T16:33:28.882Z,36.30
2018-05-26T16:35:56.337Z,35.20
2018-05-26T16:38:23.799Z,34.70
2018-05-26T16:40:51.994Z,33.90
2018-05-26T16:43:19.452Z,33.90
2018-05-26T16:45:46.923Z,33.60
2018-05-26T16:48:14.362Z,33.60
2018-05-26T16:50:41.832Z,32.90
2018-05-26T16:53:10.025Z,33.50
2018-05-26T16:55:37.466Z,32.70
2018-05-26T16:58:04.910Z,32.90
2018-05-26T17:00:32.378Z,33.00
2018-05-26T17:02:59.835Z,32.90
2018-05-26T17:05:27.278Z,33.50
2018-05-26T17:07:54.730Z,32.60
2018-05-26T17:10:22.212Z,32.70
2018-05-26T17:12:49.643Z,32.80
2018-05-26T17:15:17.527Z,32.40
2018-05-26T17:17:44.979Z,32.40
2018-05-26T17:20:12.442Z,32.70
2018-05-26T17:22:40.622Z,32.80
2018-05-26T17:25:08.659Z,32.70
2018-05-26T17:27:36.116Z,32.90
2018-05-26T17:30:03.569Z,32.70
2018-05-26T17:32:31.778Z,33.30
2018-05-26T17:34:59.242Z,33.30
2018-05-26T17:37:26.687Z,33.50
2018-05-26T17:39:54.169Z,33.80
2018-05-26T17:42:21.616Z,34.10
2018-05-26T17:44:49.065Z,34.30
2018-05-26T17:47:16.509Z,34.20
2018-05-26T17:49:43.954Z,34.40
2018-05-26T17:52:11.424Z,34.70
2018-05-26T17:54:38.868Z,34.90
2018-05-26T17:57:06.323Z,35.00
2018-05-26T17:59:33.764Z,34.70
2018-05-26T18:02:01.218Z,34.70
2018-05-26T18:04:28.662Z,34.70
2018-05-26T18:06:56.120Z,34.80
2018-05-26T18:09:23.559Z,35.00
2018-05-26T18:11:51.004Z,35.10
2018-05-26T18:14:18.438Z,36.00
2018-05-26T18:16:45.881Z,36.30
2018-05-26T18:19:13.318Z,35.10
2018-05-26T18:21:40.787Z,35.50
2018-05-26T18:24:08.986Z,36.30
2018-05-26T18:26:36.446Z,36.30
2018-05-26T18:29:03.880Z,36.60
2018-05-26T18:31:31.322Z,36.80
2018-05-26T18:33:58.791Z,37.10
2018-05-26T18:36:26.243Z,37.60
2018-05-26T18:38:53.695Z,37.60
2018-05-26T18:41:21.185Z,38.10
2018-05-26T18:43:48.622Z,39.20
2018-05-26T18:46:16.071Z,39.80
2018-05-26T18:48:43.519Z,40.20
2018-05-26T18:51:10.938Z,40.50
2018-05-26T18:53:38.375Z,40.80
2018-05-26T18:56:05.821Z,41.30
2018-05-26T18:58:33.274Z,41.30
2018-05-26T19:01:00.730Z,41.30
2018-05-26T19:03:28.173Z,41.50
2018-05-26T19:05:55.629Z,41.50
2018-05-26T19:08:23.049Z,41.40
2018-05-26T19:10:50.479Z,41.30
2018-05-26T19:13:17.942Z,41.40
2018-05-26T19:15:45.422Z,41.30
2018-05-26T19:18:12.864Z,41.60
2018-05-26T19:20:40.298Z,41.70
2018-05-26T19:23:07.728Z,41.80
2018-05-26T19:25:35.166Z,42.20
2018-05-26T19:28:02.642Z,42.50
2018-05-26T19:30:30.080Z,42.80
2018-05-26T19:32:57.518Z,43.50
2018-05-26T19:35:24.983Z,43.40
2018-05-26T19:37:53.210Z,43.90
2018-05-26T19:40:20.656Z,43.90
2018-05-26T19:42:48.731Z,44.30
2018-05-26T19:45:16.190Z,44.30
2018-05-26T19:47:43.669Z,44.60
2018-05-26T19:50:11.126Z,45.00
2018-05-26T19:52:38.554Z,45.20
2018-05-26T19:55:06.009Z,45.50
2018-05-26T19:57:33.469Z,45.70
2018-05-26T20:00:00.924Z,46.00
2018-05-26T20:02:28.381Z,46.30
2018-05-26T20:04:55.814Z,46.80
2018-05-26T20:07:23.281Z,47.40
2018-05-26T20:09:51.490Z,48.30
2018-05-26T20:12:18.958Z,48.30
2018-05-26T20:14:46.406Z,48.80
2018-05-26T20:17:13.851Z,49.30
2018-05-26T20:19:41.309Z,49.90
2018-05-26T20:22:08.808Z,50.50
2018-05-26T20:24:36.275Z,51.20
2018-05-26T20:27:03.726Z,51.60
2018-05-26T20:29:31.185Z,52.20
2018-05-26T20:31:59.387Z,53.10
2018-05-26T20:34:26.850Z,53.10
2018-05-26T20:36:54.286Z,53.20
2018-05-26T20:39:21.724Z,53.40
2018-05-26T20:41:49.182Z,53.60
2018-05-26T20:44:16.637Z,54.00
2018-05-26T20:46:44.094Z,54.50
2018-05-26T20:49:11.559Z,55.00
2018-05-26T20:51:39.788Z,55.20
2018-05-26T20:54:07.218Z,55.20
2018-05-26T20:56:34.714Z,55.20
2018-05-26T20:59:02.146Z,55.40
2018-05-26T21:01:29.590Z,55.60
2018-05-26T21:03:57.086Z,56.10
2018-05-26T21:06:24.549Z,56.50
2018-05-26T21:08:51.991Z,56.90
2018-05-26T21:11:19.450Z,57.10
2018-05-26T21:13:47.721Z,57.80
2018-05-26T21:16:15.930Z,58.20
2018-05-26T21:18:43.389Z,58.10
2018-05-26T21:21:10.873Z,58.20
2018-05-26T21:23:39.078Z,59.10
2018-05-26T21:26:07.404Z,59.10
2018-05-26T21:28:34.856Z,59.30
2018-05-26T21:31:02.315Z,59.30
2018-05-26T21:33:29.770Z,59.30
2018-05-26T21:35:57.209Z,59.20
2018-05-26T21:38:24.657Z,59.10
2018-05-26T21:40:52.126Z,59.10
2018-05-26T21:43:19.583Z,59.00
2018-05-26T21:45:47.799Z,59.20
2018-05-26T21:48:15.241Z,59.20
2018-05-26T21:50:42.687Z,59.60
2018-05-26T21:53:10.142Z,60.20
2018-05-26T21:55:37.580Z,60.50
2018-05-26T21:58:05.045Z,60.80
2018-05-26T22:00:32.479Z,61.10
2018-05-26T22:02:59.921Z,61.20
2018-05-26T22:05:27.358Z,61.20
2018-05-26T22:07:54.819Z,60.90
2018-05-26T22:10:23.022Z,60.90
2018-05-26T22:12:50.470Z,60.80
2018-05-26T22:15:17.912Z,60.90
2018-05-26T22:17:45.362Z,61.40
2018-05-26T22:20:12.798Z,61.70
2018-05-26T22:22:40.252Z,61.90
2018-05-26T22:25:07.699Z,62.50
2018-05-26T22:27:35.155Z,62.90
2018-05-26T22:30:03.357Z,63.80
2018-05-26T22:32:31.607Z,64.30
2018-05-26T22:34:59.806Z,64.10
2018-05-26T22:37:27.260Z,63.90
2018-05-26T22:39:54.702Z,64.00
2018-05-26T22:42:22.158Z,64.00
2018-05-26T22:44:49.607Z,63.80
2018-05-26T22:47:17.064Z,64.00
2018-05-26T22:49:44.522Z,64.10
2018-05-26T22:52:12.729Z,64.50
2018-05-26T22:54:40.187Z,64.50
2018-05-26T22:57:07.670Z,64.60
2018-05-26T22:59:35.119Z,64.70
2018-05-26T23:02:03.354Z,65.00
2018-05-26T23:04:30.819Z,65.00
2018-05-26T23:06:59.111Z,65.40
2018-05-26T23:09:26.547Z,65.30
2018-05-26T23:11:53.994Z,65.90
2018-05-26T23:14:21.451Z,66.50
2018-05-26T23:16:48.908Z,67.30
2018-05-26T23:19:16.369Z,67.60
2018-05-26T23:21:43.827Z,67.50
2018-05-26T23:24:11.283Z,67.50
2018-05-26T23:26:39.494Z,67.70
2018-05-26T23:29:07.099Z,67.60
2018-05-26T23:31:34.418Z,67.70
2018-05-26T23:34:01.883Z,67.80
2018-05-26T23:36:29.344Z,67.60
2018-05-26T23:38:56.786Z,67.30
2018-05-26T23:41:24.251Z,67.40
2018-05-26T23:43:51.693Z,67.40
2018-05-26T23:46:19.174Z,67.60
2018-05-26T23:48:47.081Z,68.00
2018-05-26T23:51:14.536Z,68.50
2018-05-26T23:53:43.046Z,69.00
2018-05-26T23:56:11.241Z,69.80
2018-05-26T23:58:38.706Z,69.70
